createdAt,value
2018-10-12T00:00:08.783Z,17.93
2018-10-12T00:02:35.672Z,19.90
2018-10-12T00:05:05.811Z,19.70
2018-10-12T00:07:36.083Z,21.20
2018-10-12T00:10:03.101Z,21.40
2018-10-12T00:12:30.041Z,21.20
2018-10-12T00:15:00.560Z,23.57
2018-10-12T00:17:27.711Z,21.43
2018-10-12T00:19:54.787Z,21.43
2018-10-12T00:22:21.671Z,21.03
2018-10-12T00:24:50.004Z,21.67
2018-10-12T00:27:16.955Z,21.40
2018-10-12T00:29:43.919Z,21.90
2018-10-12T00:32:10.891Z,21.50
2018-10-12T00:34:37.858Z,21.60
2018-10-12T00:37:04.751Z,22.07
2018-10-12T00:39:31.716Z,21.57
2018-10-12T00:41:58.655Z,22.40
2018-10-12T00:44:25.539Z,22.67
2018-10-12T00:46:52.494Z,21.90
2018-10-12T00:49:19.375Z,22.17
2018-10-12T00:51:47.227Z,23.33
2018-10-12T00:54:14.136Z,22.73
2018-10-12T00:56:41.028Z,26.85
2018-10-12T00:59:07.945Z,24.40
2018-10-12T01:01:34.847Z,25.17
2018-10-12T01:04:01.811Z,23.57
2018-10-12T01:06:28.777Z,24.90
2018-10-12T01:08:56.559Z,22.97
2018-10-12T01:11:23.511Z,24.93
2018-10-12T01:13:50.402Z,23.43
2018-10-12T01:16:17.261Z,26.70
2018-10-12T01:18:44.143Z,25.97
2018-10-12T01:21:11.019Z,26.57
2018-10-12T01:23:38.028Z,26.23
2018-10-12T01:26:04.960Z,25.03
2018-10-12T01:28:31.824Z,23.30
2018-10-12T01:30:59.032Z,24.33
2018-10-12T01:33:26.107Z,25.73
2018-10-12T01:35:53.035Z,25.50
2018-10-12T01:38:19.915Z,25.73
2018-10-12T01:40:46.891Z,26.47
2018-10-12T01:43:13.855Z,24.27
2018-10-12T01:45:40.717Z,26.50
2018-10-12T01:48:08.675Z,24.83
2018-10-12T01:50:35.627Z,26.07
2018-10-12T01:53:04.587Z,25.03
2018-10-12T01:55:31.487Z,24.87
2018-10-12T01:57:58.347Z,25.53
2018-10-12T02:00:25.303Z,25.50
2018-10-12T02:02:52.183Z,25.37
2018-10-12T02:05:19.163Z,23.17
2018-10-12T02:07:46.120Z,24.63
2018-10-12T02:10:13.000Z,25.40
2018-10-12T02:12:39.996Z,24.43
2018-10-12T02:15:06.939Z,25.87
2018-10-12T02:17:33.927Z,25.07
2018-10-12T02:20:00.860Z,23.97
2018-10-12T02:22:27.747Z,25.63
2018-10-12T02:24:54.729Z,23.17
2018-10-12T02:27:21.668Z,25.27
2018-10-12T02:29:48.555Z,22.33
2018-10-12T02:32:15.407Z,22.97
2018-10-12T02:34:42.291Z,21.33
2018-10-12T02:37:09.252Z,23.03
2018-10-12T02:39:36.131Z,22.10
2018-10-12T02:42:03.085Z,23.40
2018-10-12T02:44:29.991Z,21.23
2018-10-12T02:46:56.957Z,22.43
2018-10-12T02:49:23.907Z,21.57
2018-10-12T02:51:50.775Z,21.43
2018-10-12T02:54:17.792Z,19.97
2018-10-12T02:56:44.719Z,20.20
2018-10-12T02:59:11.574Z,19.33
2018-10-12T03:01:38.434Z,18.77
2018-10-12T03:04:05.352Z,20.23
2018-10-12T03:06:32.302Z,20.27
2018-10-12T03:08:59.276Z,21.93
2018-10-12T03:11:26.253Z,20.03
2018-10-12T03:13:53.198Z,19.17
2018-10-12T03:16:22.183Z,19.80
2018-10-12T03:18:49.087Z,18.60
2018-10-12T03:21:15.959Z,19.37
2018-10-12T03:23:42.839Z,20.30
2018-10-12T03:26:09.824Z,20.43
2018-10-12T03:28:37.080Z,22.43
2018-10-12T03:31:04.444Z,23.30
2018-10-12T03:33:31.927Z,21.10
2018-10-12T03:35:59.245Z,19.80
2018-10-12T03:38:26.252Z,20.13
2018-10-12T03:40:53.160Z,20.10
2018-10-12T03:43:20.024Z,23.40
2018-10-12T03:45:46.900Z,22.00
2018-10-12T03:48:13.871Z,21.73
2018-10-12T03:50:40.837Z,21.63
2018-10-12T03:53:09.332Z,20.13
2018-10-12T03:55:36.261Z,20.50
2018-10-12T03:58:03.183Z,19.90
2018-10-12T04:00:30.077Z,20.90
2018-10-12T04:02:57.008Z,20.50
2018-10-12T04:05:23.909Z,18.90
2018-10-12T04:07:51.779Z,21.50
2018-10-12T04:10:18.647Z,20.23
2018-10-12T04:12:46.549Z,21.80
2018-10-12T04:15:13.533Z,22.30
2018-10-12T04:17:40.555Z,23.20
2018-10-12T04:20:07.639Z,19.83
2018-10-12T04:22:34.535Z,23.80
2018-10-12T04:25:02.408Z,21.33
2018-10-12T04:27:30.646Z,19.33
2018-10-12T04:29:57.599Z,19.87
2018-10-12T04:32:24.556Z,20.80
2018-10-12T04:34:53.471Z,20.50
2018-10-12T04:37:20.433Z,20.07
2018-10-12T04:40:01.861Z,18.40
2018-10-12T04:42:28.748Z,18.60
2018-10-12T04:44:56.978Z,20.07
2018-10-12T04:47:31.125Z,23.33
2018-10-12T04:49:59.563Z,21.47
2018-10-12T04:52:27.619Z,19.33
2018-10-12T04:54:54.565Z,20.37
2018-10-12T04:57:21.519Z,19.83
2018-10-12T04:59:48.535Z,20.37
2018-10-12T05:02:15.448Z,19.30
2018-10-12T05:04:42.330Z,19.33
2018-10-12T05:07:09.291Z,20.60
2018-10-12T05:09:36.171Z,19.10
2018-10-12T05:12:03.159Z,21.10
2018-10-12T05:14:30.131Z,21.07
2018-10-12T05:16:57.124Z,20.87
2018-10-12T05:19:24.031Z,25.37
2018-10-12T05:21:50.955Z,23.00
2018-10-12T05:24:22.834Z,21.90
2018-10-12T05:26:50.689Z,22.60
2018-10-12T05:29:17.582Z,22.70
2018-10-12T05:31:44.565Z,21.30
2018-10-12T05:34:11.427Z,23.70
2018-10-12T05:36:38.379Z,21.37
2018-10-12T05:39:07.744Z,20.53
2018-10-12T05:41:35.599Z,22.40
2018-10-12T05:44:02.832Z,23.83
2018-10-12T05:46:30.822Z,24.40
2018-10-12T05:49:09.273Z,27.70
2018-10-12T05:51:36.192Z,25.97
2018-10-12T05:54:03.163Z,24.80
2018-10-12T05:56:32.000Z,24.80
2018-10-12T05:58:59.047Z,23.67
2018-10-12T06:01:25.978Z,24.10
2018-10-12T06:03:52.874Z,24.47
2018-10-12T06:06:20.795Z,23.20
2018-10-12T06:08:47.784Z,22.90
2018-10-12T06:11:14.833Z,23.80
2018-10-12T06:13:49.414Z,22.43
2018-10-12T06:16:16.342Z,21.90
2018-10-12T06:18:43.211Z,23.00
2018-10-12T06:21:10.211Z,22.23
2018-10-12T06:23:37.214Z,21.03
2018-10-12T06:26:04.657Z,21.40
2018-10-12T06:28:31.604Z,21.17
2018-10-12T06:30:58.594Z,21.17
2018-10-12T06:33:26.459Z,22.10
2018-10-12T06:35:53.304Z,21.13
2018-10-12T06:38:20.196Z,19.90
2018-10-12T06:40:47.251Z,21.77
2018-10-12T06:43:14.086Z,21.67
2018-10-12T06:45:41.023Z,20.07
2018-10-12T06:48:07.958Z,23.20
2018-10-12T06:50:39.384Z,24.20
2018-10-12T06:53:06.764Z,25.30
2018-10-12T06:55:43.326Z,26.30
2018-10-12T06:58:13.887Z,21.83
2018-10-12T07:00:40.905Z,20.70
2018-10-12T07:03:07.905Z,19.63
2018-10-12T07:05:38.150Z,20.50
2018-10-12T07:08:05.012Z,25.60
2018-10-12T07:10:32.840Z,24.13
2018-10-12T07:13:00.815Z,24.80
2018-10-12T07:15:28.735Z,29.90
2018-10-12T07:17:55.608Z,36.93
2018-10-12T07:20:24.531Z,23.43
2018-10-12T07:22:51.552Z,21.70
2018-10-12T07:25:18.490Z,21.30
2018-10-12T07:27:45.442Z,20.70
2018-10-12T07:30:12.412Z,20.23
2018-10-12T07:32:40.328Z,20.10
2018-10-12T07:35:07.299Z,20.67
2018-10-12T07:37:34.301Z,20.17
2018-10-12T07:40:01.218Z,20.30
2018-10-12T07:42:28.129Z,17.13
2018-10-12T07:44:55.057Z,17.10
2018-10-12T07:47:22.001Z,18.10
2018-10-12T07:49:49.187Z,16.33
2018-10-12T07:52:16.099Z,17.23
2018-10-12T07:54:43.067Z,15.27
2018-10-12T07:57:10.633Z,16.77
2018-10-12T07:59:38.079Z,17.67
2018-10-12T08:02:06.604Z,17.97
2018-10-12T08:04:35.744Z,18.48
2018-10-12T08:07:02.895Z,16.73
2018-10-12T08:09:30.100Z,15.67
2018-10-12T08:12:00.127Z,15.23
2018-10-12T08:14:27.132Z,17.80
2018-10-12T08:16:55.120Z,17.10
2018-10-12T08:19:22.067Z,14.50
2018-10-12T08:21:51.008Z,14.80
2018-10-12T08:24:17.958Z,14.03
2018-10-12T08:26:46.916Z,15.53
2018-10-12T08:29:13.890Z,13.37
2018-10-12T08:31:40.847Z,12.00
2018-10-12T08:34:08.711Z,11.80
2018-10-12T08:36:36.888Z,12.10
2018-10-12T08:39:06.979Z,12.50
2018-10-12T08:41:44.279Z,12.17
2018-10-12T08:44:11.139Z,11.90
2018-10-12T08:46:38.103Z,11.00
2018-10-12T08:49:05.996Z,11.90
2018-10-12T08:51:33.480Z,11.10
2018-10-12T08:54:01.396Z,11.43
2018-10-12T08:56:28.438Z,12.43
2018-10-12T08:58:56.336Z,10.60
2018-10-12T09:01:23.215Z,10.00
2018-10-12T09:03:50.215Z,11.30
2018-10-12T09:06:17.159Z,10.10
2018-10-12T09:08:44.220Z,10.57
2018-10-12T09:11:11.092Z,10.00
2018-10-12T09:13:41.161Z,10.20
2018-10-12T09:16:08.201Z,10.53
2018-10-12T09:18:35.216Z,10.60
2018-10-12T09:21:02.206Z,10.40
2018-10-12T09:23:29.339Z,9.63
2018-10-12T09:25:56.291Z,8.70
2018-10-12T09:28:24.186Z,9.40
2018-10-12T09:30:51.097Z,9.47
2018-10-12T09:33:18.022Z,8.60
2018-10-12T09:35:44.980Z,9.30
2018-10-12T09:38:11.873Z,9.55
2018-10-12T09:40:38.892Z,9.27
2018-10-12T09:43:07.113Z,8.90
2018-10-12T09:45:34.167Z,9.07
2018-10-12T09:48:01.224Z,8.83
2018-10-12T09:50:28.314Z,8.93
2018-10-12T09:52:55.164Z,7.47
2018-10-12T09:55:23.143Z,7.47
2018-10-12T09:57:50.091Z,8.60
2018-10-12T10:00:23.103Z,8.10
2018-10-12T10:02:55.774Z,7.83
2018-10-12T10:05:22.703Z,8.10
2018-10-12T10:07:49.791Z,7.13
2018-10-12T10:10:16.614Z,7.67
2018-10-12T10:12:43.531Z,7.00
2018-10-12T10:15:10.394Z,6.30
2018-10-12T10:17:37.400Z,6.70
2018-10-12T10:20:05.496Z,6.33
2018-10-12T10:22:32.391Z,6.73
2018-10-12T10:24:59.316Z,6.80
2018-10-12T10:27:27.255Z,6.90
2018-10-12T10:29:54.131Z,6.60
2018-10-12T10:32:21.173Z,5.50
2018-10-12T10:34:48.096Z,5.37
2018-10-12T10:37:15.065Z,5.40
2018-10-12T10:39:42.012Z,6.07
2018-10-12T10:42:08.908Z,5.60
2018-10-12T10:44:35.987Z,5.87
2018-10-12T10:47:02.981Z,5.47
2018-10-12T10:49:29.875Z,5.50
2018-10-12T10:52:00.479Z,5.70
2018-10-12T10:54:27.466Z,5.83
2018-10-12T10:57:01.049Z,5.27
2018-10-12T10:59:28.146Z,4.53
2018-10-12T11:01:55.107Z,4.93
2018-10-12T11:04:21.960Z,5.53
2018-10-12T11:06:48.854Z,5.20
2018-10-12T11:09:15.799Z,4.90
2018-10-12T11:11:42.683Z,4.47
2018-10-12T11:14:10.572Z,4.90
2018-10-12T11:16:37.669Z,4.97
2018-10-12T11:19:04.647Z,4.70
2018-10-12T11:21:31.607Z,4.87
2018-10-12T11:23:58.559Z,5.00
2018-10-12T11:26:25.616Z,5.00
2018-10-12T11:28:52.502Z,5.43
2018-10-12T11:31:31.041Z,3.80
2018-10-12T11:34:00.077Z,4.50
2018-10-12T11:36:27.594Z,4.00
2018-10-12T11:38:54.535Z,4.13
2018-10-12T11:41:21.491Z,4.27
2018-10-12T11:43:55.527Z,3.97
2018-10-12T11:46:23.463Z,3.60
2018-10-12T11:48:50.415Z,3.47
2018-10-12T11:51:17.667Z,3.80
2018-10-12T11:53:44.592Z,3.80
2018-10-12T11:56:11.500Z,3.67
2018-10-12T11:58:38.376Z,4.50
2018-10-12T12:01:05.751Z,4.17
2018-10-12T12:03:32.625Z,3.20
2018-10-12T12:06:00.616Z,3.10
2018-10-12T12:08:28.539Z,2.90
2018-10-12T12:10:55.466Z,2.70
2018-10-12T12:13:22.404Z,2.60
2018-10-12T12:15:49.319Z,2.67
2018-10-12T12:18:17.204Z,2.63
2018-10-12T12:20:44.079Z,2.90
2018-10-12T12:23:12.986Z,2.80
2018-10-12T12:25:40.919Z,2.10
2018-10-12T12:28:07.815Z,2.33
2018-10-12T12:30:34.710Z,2.60
2018-10-12T12:33:04.675Z,2.50
2018-10-12T12:35:31.819Z,2.50
2018-10-12T12:37:59.948Z,2.47
2018-10-12T12:40:26.822Z,2.83
2018-10-12T12:42:53.708Z,2.60
2018-10-12T12:45:20.572Z,2.80
2018-10-12T12:47:57.905Z,2.40
2018-10-12T12:50:24.741Z,2.70
2018-10-12T12:52:51.707Z,2.80
2018-10-12T12:55:18.659Z,3.03
2018-10-12T12:57:45.531Z,2.93
2018-10-12T13:00:12.501Z,2.63
2018-10-12T13:02:39.412Z,2.40
2018-10-12T13:05:06.399Z,3.10
2018-10-12T13:07:33.400Z,2.20
2018-10-12T13:10:00.307Z,2.17
2018-10-12T13:12:27.276Z,1.97
2018-10-12T13:14:54.235Z,2.30
2018-10-12T13:17:22.140Z,2.40
2018-10-12T13:19:49.126Z,2.00
2018-10-12T13:22:16.082Z,2.20
2018-10-12T13:24:42.987Z,2.50
2018-10-12T13:27:10.262Z,2.53
2018-10-12T13:29:37.171Z,2.03
2018-10-12T13:32:04.112Z,2.50
2018-10-12T13:34:31.062Z,2.30
2018-10-12T13:36:57.983Z,2.43
2018-10-12T13:39:25.015Z,2.13
2018-10-12T13:41:51.908Z,2.43
2018-10-12T13:44:18.821Z,2.83
2018-10-12T13:46:45.842Z,2.70
2018-10-12T13:49:12.639Z,2.67
2018-10-12T13:51:39.615Z,2.77
2018-10-12T13:54:06.632Z,2.20
2018-10-12T13:56:33.576Z,1.60
2018-10-12T13:59:00.605Z,1.40
2018-10-12T14:01:27.561Z,1.80
2018-10-12T14:03:57.819Z,1.33
2018-10-12T14:06:24.752Z,1.50
2018-10-12T14:09:01.360Z,1.50
2018-10-12T14:11:30.391Z,1.57
2018-10-12T14:13:57.401Z,1.70
2018-10-12T14:16:24.340Z,1.60
2018-10-12T14:18:51.464Z,1.80
2018-10-12T14:21:18.242Z,1.43
2018-10-12T14:23:45.183Z,1.70
2018-10-12T14:26:12.159Z,1.70
2018-10-12T14:28:39.147Z,1.50
2018-10-12T14:31:06.129Z,1.63
2018-10-12T14:33:33.073Z,1.93
2018-10-12T14:36:00.163Z,1.57
2018-10-12T14:38:27.138Z,1.43
2018-10-12T14:40:54.074Z,1.57
2018-10-12T14:43:21.048Z,1.43
2018-10-12T14:45:48.245Z,1.87
2018-10-12T14:48:16.188Z,1.90
2018-10-12T14:50:44.146Z,2.03
2018-10-12T14:53:11.224Z,1.80
2018-10-12T14:55:38.081Z,2.00
2018-10-12T14:58:05.110Z,1.98
2018-10-12T15:00:32.011Z,1.83
2018-10-12T15:02:59.049Z,2.07
2018-10-12T15:05:27.008Z,2.00
2018-10-12T15:07:57.008Z,1.60
2018-10-12T15:10:24.042Z,2.00
2018-10-12T15:12:50.968Z,1.80
2018-10-12T15:15:22.646Z,1.90
2018-10-12T15:17:51.574Z,1.73
2018-10-12T15:20:19.995Z,1.73
2018-10-12T15:22:46.947Z,1.80
2018-10-12T15:25:18.001Z,1.70
2018-10-12T15:27:45.140Z,1.73
2018-10-12T15:30:12.550Z,1.87
2018-10-12T15:32:39.666Z,1.93
2018-10-12T15:35:07.642Z,2.00
2018-10-12T15:37:34.561Z,2.20
2018-10-12T15:40:03.528Z,1.80
2018-10-12T15:42:30.482Z,3.30
2018-10-12T15:44:57.468Z,2.43
2018-10-12T15:47:24.481Z,1.90
2018-10-12T15:49:51.643Z,2.00
2018-10-12T15:52:18.575Z,2.37
2018-10-12T15:54:45.663Z,2.07
2018-10-12T15:57:17.043Z,2.10
2018-10-12T15:59:45.235Z,2.53
2018-10-12T16:02:12.145Z,2.83
2018-10-12T16:04:43.160Z,2.50
2018-10-12T16:07:10.164Z,2.43
2018-10-12T16:09:39.204Z,2.40
2018-10-12T16:12:06.147Z,2.60
2018-10-12T16:14:36.402Z,2.80
2018-10-12T16:17:03.324Z,2.67
2018-10-12T16:19:30.294Z,2.50
2018-10-12T16:21:58.227Z,2.97
2018-10-12T16:24:26.259Z,2.70
2018-10-12T16:26:53.157Z,2.83
2018-10-12T16:29:20.164Z,3.00
2018-10-12T16:31:48.132Z,2.73
2018-10-12T16:34:15.090Z,2.30
2018-10-12T16:36:42.105Z,2.00
2018-10-12T16:39:09.738Z,2.60
2018-10-12T16:41:37.208Z,2.87
2018-10-12T16:44:04.148Z,2.47
2018-10-12T16:46:31.019Z,2.80
2018-10-12T16:49:00.126Z,2.15
2018-10-12T16:51:26.951Z,3.00
2018-10-12T16:53:53.960Z,2.33
2018-10-12T16:56:22.864Z,2.87
2018-10-12T16:58:49.808Z,3.30
2018-10-12T17:01:16.787Z,3.77
2018-10-12T17:03:43.763Z,3.00
2018-10-12T17:06:10.728Z,3.57
2018-10-12T17:08:37.753Z,2.40
2018-10-12T17:11:05.853Z,2.73
2018-10-12T17:13:34.874Z,2.40
2018-10-12T17:16:01.879Z,3.83
2018-10-12T17:18:28.873Z,6.80
2018-10-12T17:20:57.674Z,7.90
2018-10-12T17:23:24.593Z,7.33
2018-10-12T17:25:51.501Z,5.10
2018-10-12T17:28:18.366Z,4.10
2018-10-12T17:30:48.954Z,5.50
2018-10-12T17:33:15.903Z,5.60
2018-10-12T17:35:49.941Z,4.30
2018-10-12T17:38:16.907Z,4.33
2018-10-12T17:40:43.907Z,4.10
2018-10-12T17:43:14.126Z,3.47
2018-10-12T17:45:45.569Z,5.00
2018-10-12T17:48:15.963Z,4.00
2018-10-12T17:50:42.987Z,5.70
2018-10-12T17:53:09.929Z,4.37
2018-10-12T17:55:45.021Z,3.30
2018-10-12T17:58:22.887Z,3.90
2018-10-12T18:00:49.858Z,3.70
2018-10-12T18:03:16.876Z,3.97
2018-10-12T18:05:43.798Z,4.00
2018-10-12T18:08:10.689Z,4.30
2018-10-12T18:10:37.678Z,4.03
2018-10-12T18:13:04.545Z,3.53
2018-10-12T18:15:31.488Z,3.37
2018-10-12T18:18:00.737Z,3.70
2018-10-12T18:20:27.664Z,4.03
2018-10-12T18:22:55.597Z,4.00
2018-10-12T18:25:23.579Z,3.17
2018-10-12T18:27:50.535Z,3.93
2018-10-12T18:30:17.519Z,3.57
2018-10-12T18:32:44.479Z,4.23
2018-10-12T18:35:12.544Z,3.37
2018-10-12T18:37:39.542Z,4.10
2018-10-12T18:40:06.604Z,4.20
2018-10-12T18:42:33.486Z,3.90
2018-10-12T18:45:03.914Z,3.50
2018-10-12T18:47:31.847Z,4.73
2018-10-12T18:49:58.817Z,4.50
2018-10-12T18:52:26.251Z,3.63
2018-10-12T18:54:53.173Z,5.20
2018-10-12T18:57:20.118Z,3.40
2018-10-12T18:59:54.574Z,3.60
2018-10-12T19:02:21.439Z,3.40
2018-10-12T19:04:49.563Z,5.00
2018-10-12T19:07:16.503Z,4.43
2018-10-12T19:09:43.523Z,6.00
2018-10-12T19:12:10.571Z,4.10
2018-10-12T19:14:37.511Z,3.90
2018-10-12T19:17:06.911Z,4.07
2018-10-12T19:19:35.928Z,5.20
2018-10-12T19:22:10.127Z,4.50
2018-10-12T19:24:37.014Z,5.30
2018-10-12T19:27:03.947Z,4.70
2018-10-12T19:29:30.923Z,4.80
2018-10-12T19:31:57.942Z,5.00
2018-10-12T19:34:24.875Z,4.63
2018-10-12T19:36:51.938Z,4.80
2018-10-12T19:39:19.017Z,5.13
2018-10-12T19:41:46.016Z,5.47
2018-10-12T19:44:12.960Z,5.40
2018-10-12T19:46:39.984Z,4.73
2018-10-12T19:49:06.914Z,5.37
2018-10-12T19:51:33.855Z,6.30
2018-10-12T19:54:01.728Z,5.73
2018-10-12T19:56:29.635Z,7.03
2018-10-12T19:58:56.516Z,9.90
2018-10-12T20:01:23.375Z,9.70
2018-10-12T20:03:50.309Z,6.90
2018-10-12T20:06:24.486Z,7.40
2018-10-12T20:09:00.493Z,6.50
2018-10-12T20:11:27.609Z,6.33
2018-10-12T20:13:54.610Z,5.80
2018-10-12T20:16:21.558Z,6.23
2018-10-12T20:18:48.414Z,6.70
2018-10-12T20:21:15.333Z,6.20
2018-10-12T20:23:42.341Z,5.90
2018-10-12T20:26:12.860Z,6.60
2018-10-12T20:28:39.813Z,5.50
2018-10-12T20:31:07.302Z,5.47
2018-10-12T20:33:34.231Z,6.00
2018-10-12T20:36:01.200Z,5.67
2018-10-12T20:38:28.203Z,5.50
2018-10-12T20:40:56.899Z,5.00
2018-10-12T20:43:23.873Z,5.47
2018-10-12T20:45:50.828Z,6.33
2018-10-12T20:48:17.938Z,5.70
2018-10-12T20:50:45.890Z,5.70
2018-10-12T20:53:12.861Z,6.17
2018-10-12T20:55:39.852Z,6.20
2018-10-12T20:58:16.267Z,6.60
2018-10-12T21:00:44.352Z,6.25
2018-10-12T21:03:11.259Z,7.37
2018-10-12T21:05:38.222Z,6.73
2018-10-12T21:08:05.250Z,6.87
2018-10-12T21:10:32.146Z,6.67
2018-10-12T21:12:59.147Z,6.50
2018-10-12T21:15:26.091Z,6.10
2018-10-12T21:17:53.048Z,5.97
2018-10-12T21:20:20.860Z,6.00
2018-10-12T21:22:47.826Z,5.90
2018-10-12T21:25:14.878Z,6.10
2018-10-12T21:27:42.829Z,6.57
2018-10-12T21:30:09.775Z,6.47
2018-10-12T21:32:36.764Z,6.07
2018-10-12T21:35:03.803Z,6.57
2018-10-12T21:37:30.700Z,6.00
2018-10-12T21:39:57.703Z,7.23
2018-10-12T21:42:24.605Z,6.30
2018-10-12T21:44:51.683Z,6.50
2018-10-12T21:47:18.551Z,5.83
2018-10-12T21:49:45.456Z,7.80
2018-10-12T21:52:12.404Z,6.77
2018-10-12T21:54:39.479Z,7.70
2018-10-12T21:57:06.551Z,6.33
2018-10-12T21:59:33.563Z,6.63
2018-10-12T22:02:00.535Z,6.20
2018-10-12T22:04:27.409Z,7.00
2018-10-12T22:06:54.316Z,6.83
2018-10-12T22:09:21.183Z,6.70
2018-10-12T22:11:50.155Z,6.50
2018-10-12T22:14:17.043Z,6.10
2018-10-12T22:16:43.959Z,6.23
2018-10-12T22:19:10.997Z,6.30
2018-10-12T22:21:37.899Z,6.03
2018-10-12T22:24:04.923Z,6.42
2018-10-12T22:26:31.783Z,6.53
2018-10-12T22:28:58.755Z,6.67
2018-10-12T22:31:27.619Z,6.20
2018-10-12T22:33:54.587Z,6.93
2018-10-12T22:36:21.603Z,6.13
2018-10-12T22:38:50.474Z,7.17
2018-10-12T22:41:21.019Z,6.63
2018-10-12T22:43:47.904Z,5.93
2018-10-12T22:46:15.819Z,6.30
2018-10-12T22:48:42.769Z,6.70
2018-10-12T22:51:12.865Z,6.23
2018-10-12T22:53:39.729Z,6.60
2018-10-12T22:56:06.607Z,6.60
2018-10-12T22:58:33.522Z,6.37
2018-10-12T23:01:00.483Z,6.37
2018-10-12T23:03:27.443Z,6.60
2018-10-12T23:05:54.320Z,7.17
2018-10-12T23:08:21.316Z,6.30
2018-10-12T23:10:48.287Z,6.97
2018-10-12T23:13:16.311Z,5.87
2018-10-12T23:15:44.240Z,6.37
2018-10-12T23:18:11.265Z,6.17
2018-10-12T23:20:38.128Z,5.90
2018-10-12T23:23:06.979Z,6.03
2018-10-12T23:25:33.911Z,6.17
2018-10-12T23:28:02.015Z,6.85
2018-10-12T23:30:28.955Z,6.30
2018-10-12T23:33:07.531Z,5.80
2018-10-12T23:35:38.023Z,5.53
2018-10-12T23:38:04.927Z,5.73
2018-10-12T23:40:31.895Z,6.10
2018-10-12T23:42:58.904Z,6.43
2018-10-12T23:45:25.760Z,6.90
2018-10-12T23:47:52.698Z,5.83
2018-10-12T23:50:26.740Z,6.53
2018-10-12T23:52:53.699Z,5.73
2018-10-12T23:55:21.563Z,5.70
2018-10-12T23:57:52.152Z,5.97
